<?xml version="1.0" encoding="UTF-8" standalone="no" ?>
<gpx xmlns="http://www.topografix.com/GPX/1/1" xmlns:xsi="http://www.w3.org/2001/XMLSchema-instance" xsi:schemaLocation="http://www.topografix.com/GPX/1/1 http://www.topografix.com/GPX/1/1/gpx.xsd" version="1.1" creator="VisuGPX - https://www.visugpx.com">
  <metadata>
    <name>Au Fil de la Bédaule</name>
    <desc><![CDATA[Lozère entre Aubrac et Margeride Haut Pays de Fournels]]></desc>
  </metadata>
  <trk>
    <name><![CDATA[8574720-Au Fil de la Bédaule]]></name>
    <trkseg>
      <trkpt lat="44.81691" lon="3.12083">
        <ele>963</ele>
        <time>2018-04-24T07:34:57Z</time>
      </trkpt>
      <trkpt lat="44.81682" lon="3.12093">
        <ele>963</ele>
        <time>2018-04-24T07:35:57Z</time>
      </trkpt>
      <trkpt lat="44.81674" lon="3.12084">
        <ele>964</ele>
        <time>2018-04-24T07:36:57Z</time>
      </trkpt>
      <trkpt lat="44.81661" lon="3.12032">
        <ele>965</ele>
        <time>2018-04-24T07:37:57Z</time>
      </trkpt>
      <trkpt lat="44.81657" lon="3.12022">
        <ele>966</ele>
        <time>2018-04-24T07:38:57Z</time>
      </trkpt>
      <trkpt lat="44.81657" lon="3.12022">
        <ele>966</ele>
        <time>2018-04-24T07:39:57Z</time>
      </trkpt>
      <trkpt lat="44.81644" lon="3.11989">
        <ele>968</ele>
        <time>2018-04-24T07:40:57Z</time>
      </trkpt>
      <trkpt lat="44.81638" lon="3.11966">
        <ele>970</ele>
        <time>2018-04-24T07:41:57Z</time>
      </trkpt>
      <trkpt lat="44.81636" lon="3.11947">
        <ele>972</ele>
        <time>2018-04-24T07:42:57Z</time>
      </trkpt>
      <trkpt lat="44.81651" lon="3.11929">
        <ele>971</ele>
        <time>2018-04-24T07:43:57Z</time>
      </trkpt>
      <trkpt lat="44.81655" lon="3.11919">
        <ele>971</ele>
        <time>2018-04-24T07:44:57Z</time>
      </trkpt>
      <trkpt lat="44.81655" lon="3.11919">
        <ele>971</ele>
        <time>2018-04-24T07:45:57Z</time>
      </trkpt>
      <trkpt lat="44.81638" lon="3.11927">
        <ele>973</ele>
        <time>2018-04-24T07:46:57Z</time>
      </trkpt>
      <trkpt lat="44.8161" lon="3.11922">
        <ele>977</ele>
        <time>2018-04-24T07:47:57Z</time>
      </trkpt>
      <trkpt lat="44.81588" lon="3.11927">
        <ele>980</ele>
        <time>2018-04-24T07:48:57Z</time>
      </trkpt>
      <trkpt lat="44.81578" lon="3.11932">
        <ele>981</ele>
        <time>2018-04-24T07:49:57Z</time>
      </trkpt>
      <trkpt lat="44.81565" lon="3.11943">
        <ele>983</ele>
        <time>2018-04-24T07:50:57Z</time>
      </trkpt>
      <trkpt lat="44.81523" lon="3.12006">
        <ele>986</ele>
        <time>2018-04-24T07:51:57Z</time>
      </trkpt>
      <trkpt lat="44.81501" lon="3.12042">
        <ele>987</ele>
        <time>2018-04-24T07:52:57Z</time>
      </trkpt>
      <trkpt lat="44.81489" lon="3.12065">
        <ele>986</ele>
        <time>2018-04-24T07:53:57Z</time>
      </trkpt>
      <trkpt lat="44.81481" lon="3.12094">
        <ele>983</ele>
        <time>2018-04-24T07:54:57Z</time>
      </trkpt>
      <trkpt lat="44.81478" lon="3.12097">
        <ele>983</ele>
        <time>2018-04-24T07:55:57Z</time>
      </trkpt>
      <trkpt lat="44.81478" lon="3.12097">
        <ele>983</ele>
        <time>2018-04-24T07:56:57Z</time>
      </trkpt>
      <trkpt lat="44.81473" lon="3.12103">
        <ele>983</ele>
        <time>2018-04-24T07:57:57Z</time>
      </trkpt>
      <trkpt lat="44.81451" lon="3.12111">
        <ele>986</ele>
        <time>2018-04-24T07:58:57Z</time>
      </trkpt>
      <trkpt lat="44.81414" lon="3.12107">
        <ele>993</ele>
        <time>2018-04-24T07:59:57Z</time>
      </trkpt>
      <trkpt lat="44.8137" lon="3.12099">
        <ele>998</ele>
        <time>2018-04-24T08:00:57Z</time>
      </trkpt>
      <trkpt lat="44.81294" lon="3.12093">
        <ele>1004</ele>
        <time>2018-04-24T08:01:57Z</time>
      </trkpt>
      <trkpt lat="44.81259" lon="3.12088">
        <ele>1007</ele>
        <time>2018-04-24T08:02:57Z</time>
      </trkpt>
      <trkpt lat="44.81223" lon="3.12088">
        <ele>1010</ele>
        <time>2018-04-24T08:03:57Z</time>
      </trkpt>
      <trkpt lat="44.81186" lon="3.12102">
        <ele>1011</ele>
        <time>2018-04-24T08:04:57Z</time>
      </trkpt>
      <trkpt lat="44.81123" lon="3.12138">
        <ele>1010</ele>
        <time>2018-04-24T08:05:57Z</time>
      </trkpt>
      <trkpt lat="44.81123" lon="3.12138">
        <ele>1010</ele>
        <time>2018-04-24T08:06:57Z</time>
      </trkpt>
      <trkpt lat="44.81078" lon="3.12166">
        <ele>1009</ele>
        <time>2018-04-24T08:07:57Z</time>
      </trkpt>
      <trkpt lat="44.81058" lon="3.12188">
        <ele>1007</ele>
        <time>2018-04-24T08:08:57Z</time>
      </trkpt>
      <trkpt lat="44.81032" lon="3.12212">
        <ele>1006</ele>
        <time>2018-04-24T08:09:57Z</time>
      </trkpt>
      <trkpt lat="44.80932" lon="3.12247">
        <ele>1004</ele>
        <time>2018-04-24T08:10:57Z</time>
      </trkpt>
      <trkpt lat="44.80898" lon="3.12253">
        <ele>1002</ele>
        <time>2018-04-24T08:11:57Z</time>
      </trkpt>
      <trkpt lat="44.80884" lon="3.12252">
        <ele>1002</ele>
        <time>2018-04-24T08:12:57Z</time>
      </trkpt>
      <trkpt lat="44.80869" lon="3.12246">
        <ele>1002</ele>
        <time>2018-04-24T08:13:57Z</time>
      </trkpt>
      <trkpt lat="44.8084" lon="3.12227">
        <ele>1005</ele>
        <time>2018-04-24T08:14:57Z</time>
      </trkpt>
      <trkpt lat="44.80818" lon="3.12203">
        <ele>1010</ele>
        <time>2018-04-24T08:15:57Z</time>
      </trkpt>
      <trkpt lat="44.80759" lon="3.12184">
        <ele>1011</ele>
        <time>2018-04-24T08:16:57Z</time>
      </trkpt>
      <trkpt lat="44.80749" lon="3.12173">
        <ele>1013</ele>
        <time>2018-04-24T08:17:57Z</time>
      </trkpt>
      <trkpt lat="44.8073" lon="3.12143">
        <ele>1019</ele>
        <time>2018-04-24T08:18:57Z</time>
      </trkpt>
      <trkpt lat="44.8073" lon="3.12143">
        <ele>1019</ele>
        <time>2018-04-24T08:19:57Z</time>
      </trkpt>
      <trkpt lat="44.80724" lon="3.12133">
        <ele>1022</ele>
        <time>2018-04-24T08:20:57Z</time>
      </trkpt>
      <trkpt lat="44.80706" lon="3.12118">
        <ele>1025</ele>
        <time>2018-04-24T08:21:57Z</time>
      </trkpt>
      <trkpt lat="44.80701" lon="3.12116">
        <ele>1026</ele>
        <time>2018-04-24T08:22:57Z</time>
      </trkpt>
      <trkpt lat="44.80692" lon="3.12116">
        <ele>1026</ele>
        <time>2018-04-24T08:23:57Z</time>
      </trkpt>
      <trkpt lat="44.80683" lon="3.12124">
        <ele>1024</ele>
        <time>2018-04-24T08:24:57Z</time>
      </trkpt>
      <trkpt lat="44.80658" lon="3.12156">
        <ele>1017</ele>
        <time>2018-04-24T08:25:57Z</time>
      </trkpt>
      <trkpt lat="44.80624" lon="3.12174">
        <ele>1015</ele>
        <time>2018-04-24T08:26:57Z</time>
      </trkpt>
      <trkpt lat="44.80593" lon="3.12176">
        <ele>1017</ele>
        <time>2018-04-24T08:27:57Z</time>
      </trkpt>
      <trkpt lat="44.80577" lon="3.12171">
        <ele>1018</ele>
        <time>2018-04-24T08:28:57Z</time>
      </trkpt>
      <trkpt lat="44.80561" lon="3.12157">
        <ele>1017</ele>
        <time>2018-04-24T08:29:57Z</time>
      </trkpt>
      <trkpt lat="44.80519" lon="3.12109">
        <ele>1018</ele>
        <time>2018-04-24T08:30:57Z</time>
      </trkpt>
      <trkpt lat="44.80497" lon="3.12098">
        <ele>1017</ele>
        <time>2018-04-24T08:31:57Z</time>
      </trkpt>
      <trkpt lat="44.80437" lon="3.12077">
        <ele>1010</ele>
        <time>2018-04-24T08:32:57Z</time>
      </trkpt>
      <trkpt lat="44.80412" lon="3.12063">
        <ele>1007</ele>
        <time>2018-04-24T08:33:57Z</time>
      </trkpt>
      <trkpt lat="44.80412" lon="3.12063">
        <ele>1007</ele>
        <time>2018-04-24T08:34:57Z</time>
      </trkpt>
      <trkpt lat="44.80395" lon="3.12054">
        <ele>1007</ele>
        <time>2018-04-24T08:35:57Z</time>
      </trkpt>
      <trkpt lat="44.80379" lon="3.12041">
        <ele>1007</ele>
        <time>2018-04-24T08:36:57Z</time>
      </trkpt>
      <trkpt lat="44.8037" lon="3.12026">
        <ele>1007</ele>
        <time>2018-04-24T08:37:57Z</time>
      </trkpt>
      <trkpt lat="44.80366" lon="3.12012">
        <ele>1007</ele>
        <time>2018-04-24T08:38:57Z</time>
      </trkpt>
      <trkpt lat="44.80359" lon="3.1197">
        <ele>1006</ele>
        <time>2018-04-24T08:39:57Z</time>
      </trkpt>
      <trkpt lat="44.80361" lon="3.11956">
        <ele>1006</ele>
        <time>2018-04-24T08:40:57Z</time>
      </trkpt>
      <trkpt lat="44.80361" lon="3.11956">
        <ele>1006</ele>
        <time>2018-04-24T08:41:57Z</time>
      </trkpt>
      <trkpt lat="44.80361" lon="3.1195">
        <ele>1006</ele>
        <time>2018-04-24T08:42:57Z</time>
      </trkpt>
      <trkpt lat="44.80348" lon="3.11962">
        <ele>1005</ele>
        <time>2018-04-24T08:43:57Z</time>
      </trkpt>
      <trkpt lat="44.80339" lon="3.12003">
        <ele>1005</ele>
        <time>2018-04-24T08:44:57Z</time>
      </trkpt>
      <trkpt lat="44.80337" lon="3.12019">
        <ele>1005</ele>
        <time>2018-04-24T08:45:57Z</time>
      </trkpt>
      <trkpt lat="44.80339" lon="3.12027">
        <ele>1005</ele>
        <time>2018-04-24T08:46:57Z</time>
      </trkpt>
      <trkpt lat="44.80339" lon="3.12027">
        <ele>1005</ele>
        <time>2018-04-24T08:47:57Z</time>
      </trkpt>
      <trkpt lat="44.80334" lon="3.12021">
        <ele>1005</ele>
        <time>2018-04-24T08:48:57Z</time>
      </trkpt>
      <trkpt lat="44.80322" lon="3.11995">
        <ele>1006</ele>
        <time>2018-04-24T08:49:57Z</time>
      </trkpt>
      <trkpt lat="44.80318" lon="3.11991">
        <ele>1006</ele>
        <time>2018-04-24T08:50:57Z</time>
      </trkpt>
      <trkpt lat="44.80303" lon="3.11988">
        <ele>1008</ele>
        <time>2018-04-24T08:51:57Z</time>
      </trkpt>
      <trkpt lat="44.80298" lon="3.11974">
        <ele>1008</ele>
        <time>2018-04-24T08:52:57Z</time>
      </trkpt>
      <trkpt lat="44.80292" lon="3.11965">
        <ele>1008</ele>
        <time>2018-04-24T08:53:57Z</time>
      </trkpt>
      <trkpt lat="44.80268" lon="3.11947">
        <ele>1009</ele>
        <time>2018-04-24T08:54:57Z</time>
      </trkpt>
      <trkpt lat="44.80257" lon="3.11941">
        <ele>1010</ele>
        <time>2018-04-24T08:55:57Z</time>
      </trkpt>
      <trkpt lat="44.80238" lon="3.11903">
        <ele>1010</ele>
        <time>2018-04-24T08:56:57Z</time>
      </trkpt>
      <trkpt lat="44.80217" lon="3.11888">
        <ele>1014</ele>
        <time>2018-04-24T08:57:57Z</time>
      </trkpt>
      <trkpt lat="44.80191" lon="3.11857">
        <ele>1017</ele>
        <time>2018-04-24T08:58:57Z</time>
      </trkpt>
      <trkpt lat="44.80176" lon="3.11842">
        <ele>1018</ele>
        <time>2018-04-24T08:59:57Z</time>
      </trkpt>
      <trkpt lat="44.80155" lon="3.11835">
        <ele>1021</ele>
        <time>2018-04-24T09:00:57Z</time>
      </trkpt>
      <trkpt lat="44.8013" lon="3.1183">
        <ele>1026</ele>
        <time>2018-04-24T09:01:57Z</time>
      </trkpt>
      <trkpt lat="44.80095" lon="3.11798">
        <ele>1031</ele>
        <time>2018-04-24T09:02:57Z</time>
      </trkpt>
      <trkpt lat="44.80073" lon="3.11786">
        <ele>1032</ele>
        <time>2018-04-24T09:03:57Z</time>
      </trkpt>
      <trkpt lat="44.80055" lon="3.11772">
        <ele>1031</ele>
        <time>2018-04-24T09:04:57Z</time>
      </trkpt>
      <trkpt lat="44.79954" lon="3.1174">
        <ele>1034</ele>
        <time>2018-04-24T09:05:57Z</time>
      </trkpt>
      <trkpt lat="44.79954" lon="3.1174">
        <ele>1034</ele>
        <time>2018-04-24T09:06:57Z</time>
      </trkpt>
      <trkpt lat="44.7995" lon="3.11738">
        <ele>1034</ele>
        <time>2018-04-24T09:07:57Z</time>
      </trkpt>
      <trkpt lat="44.79876" lon="3.11745">
        <ele>1043</ele>
        <time>2018-04-24T09:08:57Z</time>
      </trkpt>
      <trkpt lat="44.79826" lon="3.11746">
        <ele>1047</ele>
        <time>2018-04-24T09:09:57Z</time>
      </trkpt>
      <trkpt lat="44.79774" lon="3.11756">
        <ele>1049</ele>
        <time>2018-04-24T09:10:57Z</time>
      </trkpt>
      <trkpt lat="44.79723" lon="3.1176">
        <ele>1052</ele>
        <time>2018-04-24T09:11:57Z</time>
      </trkpt>
      <trkpt lat="44.79675" lon="3.11774">
        <ele>1056</ele>
        <time>2018-04-24T09:12:57Z</time>
      </trkpt>
      <trkpt lat="44.79661" lon="3.11784">
        <ele>1057</ele>
        <time>2018-04-24T09:13:57Z</time>
      </trkpt>
      <trkpt lat="44.7961" lon="3.11838">
        <ele>1061</ele>
        <time>2018-04-24T09:14:57Z</time>
      </trkpt>
      <trkpt lat="44.79581" lon="3.11851">
        <ele>1061</ele>
        <time>2018-04-24T09:15:57Z</time>
      </trkpt>
      <trkpt lat="44.79565" lon="3.11854">
        <ele>1062</ele>
        <time>2018-04-24T09:16:57Z</time>
      </trkpt>
      <trkpt lat="44.7956" lon="3.11853">
        <ele>1062</ele>
        <time>2018-04-24T09:17:57Z</time>
      </trkpt>
      <trkpt lat="44.7956" lon="3.11853">
        <ele>1062</ele>
        <time>2018-04-24T09:18:57Z</time>
      </trkpt>
      <trkpt lat="44.79527" lon="3.11856">
        <ele>1064</ele>
        <time>2018-04-24T09:19:57Z</time>
      </trkpt>
      <trkpt lat="44.79499" lon="3.11864">
        <ele>1066</ele>
        <time>2018-04-24T09:20:57Z</time>
      </trkpt>
      <trkpt lat="44.79468" lon="3.11865">
        <ele>1069</ele>
        <time>2018-04-24T09:21:57Z</time>
      </trkpt>
      <trkpt lat="44.79446" lon="3.1186">
        <ele>1071</ele>
        <time>2018-04-24T09:22:57Z</time>
      </trkpt>
      <trkpt lat="44.7944" lon="3.11853">
        <ele>1071</ele>
        <time>2018-04-24T09:23:57Z</time>
      </trkpt>
      <trkpt lat="44.79408" lon="3.11885">
        <ele>1074</ele>
        <time>2018-04-24T09:24:57Z</time>
      </trkpt>
      <trkpt lat="44.79398" lon="3.1189">
        <ele>1075</ele>
        <time>2018-04-24T09:25:57Z</time>
      </trkpt>
      <trkpt lat="44.79398" lon="3.1189">
        <ele>1075</ele>
        <time>2018-04-24T09:26:57Z</time>
      </trkpt>
      <trkpt lat="44.79326" lon="3.11877">
        <ele>1082</ele>
        <time>2018-04-24T09:27:57Z</time>
      </trkpt>
      <trkpt lat="44.79318" lon="3.11873">
        <ele>1083</ele>
        <time>2018-04-24T09:28:57Z</time>
      </trkpt>
      <trkpt lat="44.79292" lon="3.11853">
        <ele>1087</ele>
        <time>2018-04-24T09:29:57Z</time>
      </trkpt>
      <trkpt lat="44.79281" lon="3.11851">
        <ele>1088</ele>
        <time>2018-04-24T09:30:57Z</time>
      </trkpt>
      <trkpt lat="44.79226" lon="3.11869">
        <ele>1095</ele>
        <time>2018-04-24T09:31:57Z</time>
      </trkpt>
      <trkpt lat="44.79187" lon="3.11886">
        <ele>1102</ele>
        <time>2018-04-24T09:32:57Z</time>
      </trkpt>
      <trkpt lat="44.79166" lon="3.11889">
        <ele>1105</ele>
        <time>2018-04-24T09:33:57Z</time>
      </trkpt>
      <trkpt lat="44.79148" lon="3.11888">
        <ele>1106</ele>
        <time>2018-04-24T09:34:57Z</time>
      </trkpt>
      <trkpt lat="44.7912" lon="3.11871">
        <ele>1107</ele>
        <time>2018-04-24T09:35:57Z</time>
      </trkpt>
      <trkpt lat="44.79105" lon="3.11866">
        <ele>1108</ele>
        <time>2018-04-24T09:36:57Z</time>
      </trkpt>
      <trkpt lat="44.79092" lon="3.11867">
        <ele>1108</ele>
        <time>2018-04-24T09:37:57Z</time>
      </trkpt>
      <trkpt lat="44.79092" lon="3.11867">
        <ele>1108</ele>
        <time>2018-04-24T09:38:57Z</time>
      </trkpt>
      <trkpt lat="44.79026" lon="3.11884">
        <ele>1113</ele>
        <time>2018-04-24T09:39:57Z</time>
      </trkpt>
      <trkpt lat="44.78979" lon="3.11907">
        <ele>1117</ele>
        <time>2018-04-24T09:40:57Z</time>
      </trkpt>
      <trkpt lat="44.78955" lon="3.11915">
        <ele>1120</ele>
        <time>2018-04-24T09:41:57Z</time>
      </trkpt>
      <trkpt lat="44.78905" lon="3.11915">
        <ele>1126</ele>
        <time>2018-04-24T09:42:57Z</time>
      </trkpt>
      <trkpt lat="44.78871" lon="3.11921">
        <ele>1130</ele>
        <time>2018-04-24T09:43:57Z</time>
      </trkpt>
      <trkpt lat="44.78824" lon="3.11933">
        <ele>1135</ele>
        <time>2018-04-24T09:44:57Z</time>
      </trkpt>
      <trkpt lat="44.78812" lon="3.11932">
        <ele>1136</ele>
        <time>2018-04-24T09:45:57Z</time>
      </trkpt>
      <trkpt lat="44.78785" lon="3.11921">
        <ele>1140</ele>
        <time>2018-04-24T09:46:57Z</time>
      </trkpt>
      <trkpt lat="44.78748" lon="3.11895">
        <ele>1148</ele>
        <time>2018-04-24T09:47:57Z</time>
      </trkpt>
      <trkpt lat="44.78729" lon="3.11883">
        <ele>1149</ele>
        <time>2018-04-24T09:48:57Z</time>
      </trkpt>
      <trkpt lat="44.78729" lon="3.11883">
        <ele>1149</ele>
        <time>2018-04-24T09:49:57Z</time>
      </trkpt>
      <trkpt lat="44.78718" lon="3.11877">
        <ele>1149</ele>
        <time>2018-04-24T09:50:57Z</time>
      </trkpt>
      <trkpt lat="44.78687" lon="3.1185">
        <ele>1153</ele>
        <time>2018-04-24T09:51:57Z</time>
      </trkpt>
      <trkpt lat="44.78666" lon="3.11827">
        <ele>1157</ele>
        <time>2018-04-24T09:52:57Z</time>
      </trkpt>
      <trkpt lat="44.78624" lon="3.11776">
        <ele>1156</ele>
        <time>2018-04-24T09:53:57Z</time>
      </trkpt>
      <trkpt lat="44.78594" lon="3.11723">
        <ele>1157</ele>
        <time>2018-04-24T09:54:57Z</time>
      </trkpt>
      <trkpt lat="44.78557" lon="3.11616">
        <ele>1160</ele>
        <time>2018-04-24T09:55:57Z</time>
      </trkpt>
      <trkpt lat="44.78544" lon="3.11517">
        <ele>1163</ele>
        <time>2018-04-24T09:56:57Z</time>
      </trkpt>
      <trkpt lat="44.78535" lon="3.11474">
        <ele>1164</ele>
        <time>2018-04-24T09:57:57Z</time>
      </trkpt>
      <trkpt lat="44.78514" lon="3.11401">
        <ele>1168</ele>
        <time>2018-04-24T09:58:57Z</time>
      </trkpt>
      <trkpt lat="44.78491" lon="3.11344">
        <ele>1170</ele>
        <time>2018-04-24T09:59:57Z</time>
      </trkpt>
      <trkpt lat="44.78477" lon="3.11317">
        <ele>1171</ele>
        <time>2018-04-24T10:00:57Z</time>
      </trkpt>
      <trkpt lat="44.78477" lon="3.11317">
        <ele>1171</ele>
        <time>2018-04-24T10:01:57Z</time>
      </trkpt>
      <trkpt lat="44.78463" lon="3.11289">
        <ele>1173</ele>
        <time>2018-04-24T10:02:57Z</time>
      </trkpt>
      <trkpt lat="44.78434" lon="3.11217">
        <ele>1177</ele>
        <time>2018-04-24T10:03:57Z</time>
      </trkpt>
      <trkpt lat="44.78416" lon="3.1116">
        <ele>1180</ele>
        <time>2018-04-24T10:04:57Z</time>
      </trkpt>
      <trkpt lat="44.78406" lon="3.11119">
        <ele>1181</ele>
        <time>2018-04-24T10:05:57Z</time>
      </trkpt>
      <trkpt lat="44.78349" lon="3.1099">
        <ele>1190</ele>
        <time>2018-04-24T10:06:57Z</time>
      </trkpt>
      <trkpt lat="44.78328" lon="3.10958">
        <ele>1192</ele>
        <time>2018-04-24T10:07:57Z</time>
      </trkpt>
      <trkpt lat="44.78275" lon="3.10917">
        <ele>1195</ele>
        <time>2018-04-24T10:08:57Z</time>
      </trkpt>
      <trkpt lat="44.78229" lon="3.10893">
        <ele>1197</ele>
        <time>2018-04-24T10:09:57Z</time>
      </trkpt>
      <trkpt lat="44.78229" lon="3.10893">
        <ele>1197</ele>
        <time>2018-04-24T10:10:57Z</time>
      </trkpt>
      <trkpt lat="44.78227" lon="3.10892">
        <ele>1197</ele>
        <time>2018-04-24T10:11:57Z</time>
      </trkpt>
      <trkpt lat="44.78198" lon="3.10977">
        <ele>1197</ele>
        <time>2018-04-24T10:12:57Z</time>
      </trkpt>
      <trkpt lat="44.78183" lon="3.1103">
        <ele>1195</ele>
        <time>2018-04-24T10:13:57Z</time>
      </trkpt>
      <trkpt lat="44.78175" lon="3.11048">
        <ele>1194</ele>
        <time>2018-04-24T10:14:57Z</time>
      </trkpt>
      <trkpt lat="44.78167" lon="3.11058">
        <ele>1194</ele>
        <time>2018-04-24T10:15:57Z</time>
      </trkpt>
      <trkpt lat="44.78147" lon="3.11073">
        <ele>1192</ele>
        <time>2018-04-24T10:16:57Z</time>
      </trkpt>
      <trkpt lat="44.78126" lon="3.11096">
        <ele>1190</ele>
        <time>2018-04-24T10:17:57Z</time>
      </trkpt>
      <trkpt lat="44.78112" lon="3.11131">
        <ele>1190</ele>
        <time>2018-04-24T10:18:57Z</time>
      </trkpt>
      <trkpt lat="44.7809" lon="3.112">
        <ele>1190</ele>
        <time>2018-04-24T10:19:57Z</time>
      </trkpt>
      <trkpt lat="44.78065" lon="3.11258">
        <ele>1189</ele>
        <time>2018-04-24T10:20:57Z</time>
      </trkpt>
      <trkpt lat="44.78021" lon="3.114">
        <ele>1184</ele>
        <time>2018-04-24T10:21:57Z</time>
      </trkpt>
      <trkpt lat="44.78001" lon="3.11479">
        <ele>1179</ele>
        <time>2018-04-24T10:22:57Z</time>
      </trkpt>
      <trkpt lat="44.78001" lon="3.11479">
        <ele>1179</ele>
        <time>2018-04-24T10:23:57Z</time>
      </trkpt>
      <trkpt lat="44.7799" lon="3.11522">
        <ele>1176</ele>
        <time>2018-04-24T10:24:57Z</time>
      </trkpt>
      <trkpt lat="44.77985" lon="3.11532">
        <ele>1175</ele>
        <time>2018-04-24T10:25:57Z</time>
      </trkpt>
      <trkpt lat="44.77948" lon="3.1155">
        <ele>1171</ele>
        <time>2018-04-24T10:26:57Z</time>
      </trkpt>
      <trkpt lat="44.77944" lon="3.1156">
        <ele>1170</ele>
        <time>2018-04-24T10:27:57Z</time>
      </trkpt>
      <trkpt lat="44.77932" lon="3.11671">
        <ele>1163</ele>
        <time>2018-04-24T10:28:57Z</time>
      </trkpt>
      <trkpt lat="44.7792" lon="3.11715">
        <ele>1161</ele>
        <time>2018-04-24T10:29:57Z</time>
      </trkpt>
      <trkpt lat="44.77915" lon="3.11745">
        <ele>1162</ele>
        <time>2018-04-24T10:30:57Z</time>
      </trkpt>
      <trkpt lat="44.77911" lon="3.11788">
        <ele>1163</ele>
        <time>2018-04-24T10:31:57Z</time>
      </trkpt>
      <trkpt lat="44.77899" lon="3.11841">
        <ele>1167</ele>
        <time>2018-04-24T10:32:57Z</time>
      </trkpt>
      <trkpt lat="44.77886" lon="3.11891">
        <ele>1169</ele>
        <time>2018-04-24T10:33:57Z</time>
      </trkpt>
      <trkpt lat="44.77869" lon="3.11924">
        <ele>1169</ele>
        <time>2018-04-24T10:34:57Z</time>
      </trkpt>
      <trkpt lat="44.77853" lon="3.11946">
        <ele>1166</ele>
        <time>2018-04-24T10:35:57Z</time>
      </trkpt>
      <trkpt lat="44.77835" lon="3.1196">
        <ele>1165</ele>
        <time>2018-04-24T10:36:57Z</time>
      </trkpt>
      <trkpt lat="44.77795" lon="3.11971">
        <ele>1164</ele>
        <time>2018-04-24T10:37:57Z</time>
      </trkpt>
      <trkpt lat="44.77781" lon="3.11982">
        <ele>1162</ele>
        <time>2018-04-24T10:38:57Z</time>
      </trkpt>
      <trkpt lat="44.77744" lon="3.12004">
        <ele>1157</ele>
        <time>2018-04-24T10:39:57Z</time>
      </trkpt>
      <trkpt lat="44.7773" lon="3.12008">
        <ele>1157</ele>
        <time>2018-04-24T10:40:57Z</time>
      </trkpt>
      <trkpt lat="44.7773" lon="3.12008">
        <ele>1157</ele>
        <time>2018-04-24T10:41:57Z</time>
      </trkpt>
      <trkpt lat="44.77723" lon="3.12008">
        <ele>1157</ele>
        <time>2018-04-24T10:42:57Z</time>
      </trkpt>
      <trkpt lat="44.777" lon="3.12003">
        <ele>1158</ele>
        <time>2018-04-24T10:43:57Z</time>
      </trkpt>
      <trkpt lat="44.77683" lon="3.12005">
        <ele>1158</ele>
        <time>2018-04-24T10:44:57Z</time>
      </trkpt>
      <trkpt lat="44.77644" lon="3.12015">
        <ele>1158</ele>
        <time>2018-04-24T10:45:57Z</time>
      </trkpt>
      <trkpt lat="44.77524" lon="3.12053">
        <ele>1157</ele>
        <time>2018-04-24T10:46:57Z</time>
      </trkpt>
      <trkpt lat="44.77503" lon="3.12067">
        <ele>1155</ele>
        <time>2018-04-24T10:47:57Z</time>
      </trkpt>
      <trkpt lat="44.77491" lon="3.12078">
        <ele>1154</ele>
        <time>2018-04-24T10:48:57Z</time>
      </trkpt>
      <trkpt lat="44.7748" lon="3.12096">
        <ele>1152</ele>
        <time>2018-04-24T10:49:57Z</time>
      </trkpt>
      <trkpt lat="44.7747" lon="3.12118">
        <ele>1150</ele>
        <time>2018-04-24T10:50:57Z</time>
      </trkpt>
      <trkpt lat="44.77463" lon="3.12141">
        <ele>1148</ele>
        <time>2018-04-24T10:51:57Z</time>
      </trkpt>
      <trkpt lat="44.77457" lon="3.12177">
        <ele>1144</ele>
        <time>2018-04-24T10:52:57Z</time>
      </trkpt>
      <trkpt lat="44.77452" lon="3.12241">
        <ele>1140</ele>
        <time>2018-04-24T10:53:57Z</time>
      </trkpt>
      <trkpt lat="44.77445" lon="3.12277">
        <ele>1140</ele>
        <time>2018-04-24T10:54:57Z</time>
      </trkpt>
      <trkpt lat="44.77441" lon="3.12334">
        <ele>1141</ele>
        <time>2018-04-24T10:55:57Z</time>
      </trkpt>
      <trkpt lat="44.77433" lon="3.12354">
        <ele>1142</ele>
        <time>2018-04-24T10:56:57Z</time>
      </trkpt>
      <trkpt lat="44.77402" lon="3.12407">
        <ele>1141</ele>
        <time>2018-04-24T10:57:57Z</time>
      </trkpt>
      <trkpt lat="44.77402" lon="3.12407">
        <ele>1141</ele>
        <time>2018-04-24T10:58:57Z</time>
      </trkpt>
      <trkpt lat="44.77397" lon="3.12416">
        <ele>1141</ele>
        <time>2018-04-24T10:59:57Z</time>
      </trkpt>
      <trkpt lat="44.77391" lon="3.12455">
        <ele>1139</ele>
        <time>2018-04-24T11:00:57Z</time>
      </trkpt>
      <trkpt lat="44.77382" lon="3.12496">
        <ele>1137</ele>
        <time>2018-04-24T11:01:57Z</time>
      </trkpt>
      <trkpt lat="44.77364" lon="3.12555">
        <ele>1134</ele>
        <time>2018-04-24T11:02:57Z</time>
      </trkpt>
      <trkpt lat="44.77356" lon="3.12576">
        <ele>1133</ele>
        <time>2018-04-24T11:03:57Z</time>
      </trkpt>
      <trkpt lat="44.77345" lon="3.12593">
        <ele>1131</ele>
        <time>2018-04-24T11:04:57Z</time>
      </trkpt>
      <trkpt lat="44.77324" lon="3.12606">
        <ele>1129</ele>
        <time>2018-04-24T11:05:57Z</time>
      </trkpt>
      <trkpt lat="44.77324" lon="3.12606">
        <ele>1129</ele>
        <time>2018-04-24T11:06:57Z</time>
      </trkpt>
      <trkpt lat="44.77323" lon="3.12607">
        <ele>1129</ele>
        <time>2018-04-24T11:07:57Z</time>
      </trkpt>
      <trkpt lat="44.77316" lon="3.12629">
        <ele>1128</ele>
        <time>2018-04-24T11:08:57Z</time>
      </trkpt>
      <trkpt lat="44.77312" lon="3.12649">
        <ele>1128</ele>
        <time>2018-04-24T11:09:57Z</time>
      </trkpt>
      <trkpt lat="44.77314" lon="3.12667">
        <ele>1128</ele>
        <time>2018-04-24T11:10:57Z</time>
      </trkpt>
      <trkpt lat="44.77318" lon="3.12682">
        <ele>1128</ele>
        <time>2018-04-24T11:11:57Z</time>
      </trkpt>
      <trkpt lat="44.7732" lon="3.127">
        <ele>1128</ele>
        <time>2018-04-24T11:12:57Z</time>
      </trkpt>
      <trkpt lat="44.77319" lon="3.12718">
        <ele>1127</ele>
        <time>2018-04-24T11:13:57Z</time>
      </trkpt>
      <trkpt lat="44.77311" lon="3.12773">
        <ele>1123</ele>
        <time>2018-04-24T11:14:57Z</time>
      </trkpt>
      <trkpt lat="44.77286" lon="3.12857">
        <ele>1117</ele>
        <time>2018-04-24T11:15:57Z</time>
      </trkpt>
      <trkpt lat="44.77273" lon="3.12883">
        <ele>1114</ele>
        <time>2018-04-24T11:16:57Z</time>
      </trkpt>
      <trkpt lat="44.77264" lon="3.12912">
        <ele>1111</ele>
        <time>2018-04-24T11:17:57Z</time>
      </trkpt>
      <trkpt lat="44.77264" lon="3.12912">
        <ele>1111</ele>
        <time>2018-04-24T11:18:57Z</time>
      </trkpt>
      <trkpt lat="44.77263" lon="3.12914">
        <ele>1111</ele>
        <time>2018-04-24T11:19:57Z</time>
      </trkpt>
      <trkpt lat="44.77243" lon="3.12887">
        <ele>1111</ele>
        <time>2018-04-24T11:20:57Z</time>
      </trkpt>
      <trkpt lat="44.77219" lon="3.12864">
        <ele>1111</ele>
        <time>2018-04-24T11:21:57Z</time>
      </trkpt>
      <trkpt lat="44.772" lon="3.12856">
        <ele>1111</ele>
        <time>2018-04-24T11:22:57Z</time>
      </trkpt>
      <trkpt lat="44.7718" lon="3.12854">
        <ele>1111</ele>
        <time>2018-04-24T11:23:57Z</time>
      </trkpt>
      <trkpt lat="44.7716" lon="3.1286">
        <ele>1109</ele>
        <time>2018-04-24T11:24:57Z</time>
      </trkpt>
      <trkpt lat="44.77145" lon="3.1286">
        <ele>1108</ele>
        <time>2018-04-24T11:25:57Z</time>
      </trkpt>
      <trkpt lat="44.77128" lon="3.12854">
        <ele>1108</ele>
        <time>2018-04-24T11:26:57Z</time>
      </trkpt>
      <trkpt lat="44.77107" lon="3.1285">
        <ele>1106</ele>
        <time>2018-04-24T11:27:57Z</time>
      </trkpt>
      <trkpt lat="44.77107" lon="3.1285">
        <ele>1106</ele>
        <time>2018-04-24T11:28:57Z</time>
      </trkpt>
      <trkpt lat="44.77102" lon="3.12849">
        <ele>1106</ele>
        <time>2018-04-24T11:29:57Z</time>
      </trkpt>
      <trkpt lat="44.77062" lon="3.12863">
        <ele>1102</ele>
        <time>2018-04-24T11:30:57Z</time>
      </trkpt>
      <trkpt lat="44.77062" lon="3.12863">
        <ele>1102</ele>
        <time>2018-04-24T11:31:57Z</time>
      </trkpt>
      <trkpt lat="44.77054" lon="3.12869">
        <ele>1101</ele>
        <time>2018-04-24T11:32:57Z</time>
      </trkpt>
      <trkpt lat="44.77043" lon="3.12896">
        <ele>1099</ele>
        <time>2018-04-24T11:33:57Z</time>
      </trkpt>
      <trkpt lat="44.77038" lon="3.1293">
        <ele>1098</ele>
        <time>2018-04-24T11:34:57Z</time>
      </trkpt>
      <trkpt lat="44.77038" lon="3.1293">
        <ele>1098</ele>
        <time>2018-04-24T11:35:57Z</time>
      </trkpt>
      <trkpt lat="44.77046" lon="3.12977">
        <ele>1095</ele>
        <time>2018-04-24T11:36:57Z</time>
      </trkpt>
      <trkpt lat="44.77051" lon="3.12988">
        <ele>1094</ele>
        <time>2018-04-24T11:37:57Z</time>
      </trkpt>
      <trkpt lat="44.77059" lon="3.12997">
        <ele>1094</ele>
        <time>2018-04-24T11:38:57Z</time>
      </trkpt>
      <trkpt lat="44.77069" lon="3.13002">
        <ele>1094</ele>
        <time>2018-04-24T11:39:57Z</time>
      </trkpt>
      <trkpt lat="44.77069" lon="3.13002">
        <ele>1094</ele>
        <time>2018-04-24T11:40:57Z</time>
      </trkpt>
      <trkpt lat="44.77083" lon="3.13005">
        <ele>1095</ele>
        <time>2018-04-24T11:41:57Z</time>
      </trkpt>
      <trkpt lat="44.77133" lon="3.13">
        <ele>1094</ele>
        <time>2018-04-24T11:42:57Z</time>
      </trkpt>
      <trkpt lat="44.77147" lon="3.13002">
        <ele>1093</ele>
        <time>2018-04-24T11:43:57Z</time>
      </trkpt>
      <trkpt lat="44.77164" lon="3.13013">
        <ele>1092</ele>
        <time>2018-04-24T11:44:57Z</time>
      </trkpt>
      <trkpt lat="44.77193" lon="3.13056">
        <ele>1090</ele>
        <time>2018-04-24T11:45:57Z</time>
      </trkpt>
      <trkpt lat="44.77222" lon="3.13089">
        <ele>1090</ele>
        <time>2018-04-24T11:46:57Z</time>
      </trkpt>
      <trkpt lat="44.77233" lon="3.13107">
        <ele>1089</ele>
        <time>2018-04-24T11:47:57Z</time>
      </trkpt>
      <trkpt lat="44.7724" lon="3.13129">
        <ele>1088</ele>
        <time>2018-04-24T11:48:57Z</time>
      </trkpt>
      <trkpt lat="44.7724" lon="3.13129">
        <ele>1088</ele>
        <time>2018-04-24T11:49:57Z</time>
      </trkpt>
      <trkpt lat="44.77242" lon="3.13147">
        <ele>1086</ele>
        <time>2018-04-24T11:50:57Z</time>
      </trkpt>
      <trkpt lat="44.77257" lon="3.13191">
        <ele>1084</ele>
        <time>2018-04-24T11:51:57Z</time>
      </trkpt>
      <trkpt lat="44.77259" lon="3.13208">
        <ele>1083</ele>
        <time>2018-04-24T11:52:57Z</time>
      </trkpt>
      <trkpt lat="44.77264" lon="3.1325">
        <ele>1079</ele>
        <time>2018-04-24T11:53:57Z</time>
      </trkpt>
      <trkpt lat="44.77262" lon="3.13269">
        <ele>1078</ele>
        <time>2018-04-24T11:54:57Z</time>
      </trkpt>
      <trkpt lat="44.77266" lon="3.13326">
        <ele>1073</ele>
        <time>2018-04-24T11:55:57Z</time>
      </trkpt>
      <trkpt lat="44.77267" lon="3.13327">
        <ele>1073</ele>
        <time>2018-04-24T11:56:57Z</time>
      </trkpt>
      <trkpt lat="44.77267" lon="3.13327">
        <ele>1073</ele>
        <time>2018-04-24T11:57:57Z</time>
      </trkpt>
      <trkpt lat="44.77266" lon="3.13326">
        <ele>1073</ele>
        <time>2018-04-24T11:58:57Z</time>
      </trkpt>
      <trkpt lat="44.77262" lon="3.13334">
        <ele>1073</ele>
        <time>2018-04-24T11:59:57Z</time>
      </trkpt>
      <trkpt lat="44.77246" lon="3.13349">
        <ele>1070</ele>
        <time>2018-04-24T12:00:57Z</time>
      </trkpt>
      <trkpt lat="44.77244" lon="3.13358">
        <ele>1069</ele>
        <time>2018-04-24T12:01:57Z</time>
      </trkpt>
      <trkpt lat="44.77244" lon="3.13363">
        <ele>1069</ele>
        <time>2018-04-24T12:02:57Z</time>
      </trkpt>
      <trkpt lat="44.77244" lon="3.13363">
        <ele>1069</ele>
        <time>2018-04-24T12:03:57Z</time>
      </trkpt>
      <trkpt lat="44.77244" lon="3.13365">
        <ele>1069</ele>
        <time>2018-04-24T12:04:57Z</time>
      </trkpt>
      <trkpt lat="44.7725" lon="3.13372">
        <ele>1068</ele>
        <time>2018-04-24T12:05:57Z</time>
      </trkpt>
      <trkpt lat="44.77261" lon="3.13379">
        <ele>1068</ele>
        <time>2018-04-24T12:06:57Z</time>
      </trkpt>
      <trkpt lat="44.77277" lon="3.13397">
        <ele>1066</ele>
        <time>2018-04-24T12:07:57Z</time>
      </trkpt>
      <trkpt lat="44.77299" lon="3.13429">
        <ele>1063</ele>
        <time>2018-04-24T12:08:57Z</time>
      </trkpt>
      <trkpt lat="44.77315" lon="3.1346">
        <ele>1061</ele>
        <time>2018-04-24T12:09:57Z</time>
      </trkpt>
      <trkpt lat="44.77329" lon="3.13498">
        <ele>1058</ele>
        <time>2018-04-24T12:10:57Z</time>
      </trkpt>
      <trkpt lat="44.77329" lon="3.13498">
        <ele>1058</ele>
        <time>2018-04-24T12:11:57Z</time>
      </trkpt>
      <trkpt lat="44.7733" lon="3.13502">
        <ele>1058</ele>
        <time>2018-04-24T12:12:57Z</time>
      </trkpt>
      <trkpt lat="44.77339" lon="3.13516">
        <ele>1059</ele>
        <time>2018-04-24T12:13:57Z</time>
      </trkpt>
      <trkpt lat="44.77347" lon="3.13525">
        <ele>1059</ele>
        <time>2018-04-24T12:14:57Z</time>
      </trkpt>
      <trkpt lat="44.77354" lon="3.13542">
        <ele>1060</ele>
        <time>2018-04-24T12:15:57Z</time>
      </trkpt>
      <trkpt lat="44.7738" lon="3.13596">
        <ele>1061</ele>
        <time>2018-04-24T12:16:57Z</time>
      </trkpt>
      <trkpt lat="44.77391" lon="3.13612">
        <ele>1062</ele>
        <time>2018-04-24T12:17:57Z</time>
      </trkpt>
      <trkpt lat="44.77426" lon="3.1365">
        <ele>1062</ele>
        <time>2018-04-24T12:18:57Z</time>
      </trkpt>
      <trkpt lat="44.77467" lon="3.13699">
        <ele>1062</ele>
        <time>2018-04-24T12:19:57Z</time>
      </trkpt>
      <trkpt lat="44.77485" lon="3.13718">
        <ele>1061</ele>
        <time>2018-04-24T12:20:57Z</time>
      </trkpt>
      <trkpt lat="44.77499" lon="3.1373">
        <ele>1059</ele>
        <time>2018-04-24T12:21:57Z</time>
      </trkpt>
      <trkpt lat="44.77526" lon="3.13745">
        <ele>1059</ele>
        <time>2018-04-24T12:22:57Z</time>
      </trkpt>
      <trkpt lat="44.7756" lon="3.1376">
        <ele>1059</ele>
        <time>2018-04-24T12:23:57Z</time>
      </trkpt>
      <trkpt lat="44.77594" lon="3.13789">
        <ele>1061</ele>
        <time>2018-04-24T12:24:57Z</time>
      </trkpt>
      <trkpt lat="44.7763" lon="3.13807">
        <ele>1063</ele>
        <time>2018-04-24T12:25:57Z</time>
      </trkpt>
      <trkpt lat="44.77676" lon="3.13822">
        <ele>1064</ele>
        <time>2018-04-24T12:26:57Z</time>
      </trkpt>
      <trkpt lat="44.77681" lon="3.13834">
        <ele>1065</ele>
        <time>2018-04-24T12:27:57Z</time>
      </trkpt>
      <trkpt lat="44.77678" lon="3.13879">
        <ele>1070</ele>
        <time>2018-04-24T12:28:57Z</time>
      </trkpt>
      <trkpt lat="44.7768" lon="3.13887">
        <ele>1070</ele>
        <time>2018-04-24T12:29:57Z</time>
      </trkpt>
      <trkpt lat="44.7771" lon="3.13926">
        <ele>1072</ele>
        <time>2018-04-24T12:30:57Z</time>
      </trkpt>
      <trkpt lat="44.77715" lon="3.1394">
        <ele>1073</ele>
        <time>2018-04-24T12:31:57Z</time>
      </trkpt>
      <trkpt lat="44.77715" lon="3.13948">
        <ele>1073</ele>
        <time>2018-04-24T12:32:57Z</time>
      </trkpt>
      <trkpt lat="44.77715" lon="3.13948">
        <ele>1073</ele>
        <time>2018-04-24T12:33:57Z</time>
      </trkpt>
      <trkpt lat="44.77711" lon="3.14001">
        <ele>1076</ele>
        <time>2018-04-24T12:34:57Z</time>
      </trkpt>
      <trkpt lat="44.77705" lon="3.14041">
        <ele>1078</ele>
        <time>2018-04-24T12:35:57Z</time>
      </trkpt>
      <trkpt lat="44.77698" lon="3.14082">
        <ele>1080</ele>
        <time>2018-04-24T12:36:57Z</time>
      </trkpt>
      <trkpt lat="44.77697" lon="3.141">
        <ele>1081</ele>
        <time>2018-04-24T12:37:57Z</time>
      </trkpt>
      <trkpt lat="44.77698" lon="3.14139">
        <ele>1082</ele>
        <time>2018-04-24T12:38:57Z</time>
      </trkpt>
      <trkpt lat="44.77698" lon="3.14139">
        <ele>1082</ele>
        <time>2018-04-24T12:39:57Z</time>
      </trkpt>
      <trkpt lat="44.77698" lon="3.1414">
        <ele>1082</ele>
        <time>2018-04-24T12:40:57Z</time>
      </trkpt>
      <trkpt lat="44.77759" lon="3.14143">
        <ele>1077</ele>
        <time>2018-04-24T12:41:57Z</time>
      </trkpt>
      <trkpt lat="44.77778" lon="3.14146">
        <ele>1076</ele>
        <time>2018-04-24T12:42:57Z</time>
      </trkpt>
      <trkpt lat="44.77787" lon="3.1415">
        <ele>1075</ele>
        <time>2018-04-24T12:43:57Z</time>
      </trkpt>
      <trkpt lat="44.77795" lon="3.14158">
        <ele>1075</ele>
        <time>2018-04-24T12:44:57Z</time>
      </trkpt>
      <trkpt lat="44.778" lon="3.14171">
        <ele>1074</ele>
        <time>2018-04-24T12:45:57Z</time>
      </trkpt>
      <trkpt lat="44.77804" lon="3.14211">
        <ele>1071</ele>
        <time>2018-04-24T12:46:57Z</time>
      </trkpt>
      <trkpt lat="44.7782" lon="3.14265">
        <ele>1064</ele>
        <time>2018-04-24T12:47:57Z</time>
      </trkpt>
      <trkpt lat="44.77818" lon="3.14302">
        <ele>1062</ele>
        <time>2018-04-24T12:48:57Z</time>
      </trkpt>
      <trkpt lat="44.77812" lon="3.14328">
        <ele>1062</ele>
        <time>2018-04-24T12:49:57Z</time>
      </trkpt>
      <trkpt lat="44.77805" lon="3.14375">
        <ele>1060</ele>
        <time>2018-04-24T12:50:57Z</time>
      </trkpt>
      <trkpt lat="44.77804" lon="3.14384">
        <ele>1060</ele>
        <time>2018-04-24T12:51:57Z</time>
      </trkpt>
      <trkpt lat="44.77808" lon="3.14387">
        <ele>1058</ele>
        <time>2018-04-24T12:52:57Z</time>
      </trkpt>
      <trkpt lat="44.77809" lon="3.14386">
        <ele>1058</ele>
        <time>2018-04-24T12:53:57Z</time>
      </trkpt>
      <trkpt lat="44.77809" lon="3.14386">
        <ele>1058</ele>
        <time>2018-04-24T12:54:57Z</time>
      </trkpt>
      <trkpt lat="44.77812" lon="3.14384">
        <ele>1057</ele>
        <time>2018-04-24T12:55:57Z</time>
      </trkpt>
      <trkpt lat="44.77823" lon="3.14364">
        <ele>1056</ele>
        <time>2018-04-24T12:56:57Z</time>
      </trkpt>
      <trkpt lat="44.77852" lon="3.14343">
        <ele>1053</ele>
        <time>2018-04-24T12:57:57Z</time>
      </trkpt>
      <trkpt lat="44.77862" lon="3.14329">
        <ele>1053</ele>
        <time>2018-04-24T12:58:57Z</time>
      </trkpt>
      <trkpt lat="44.77878" lon="3.14325">
        <ele>1051</ele>
        <time>2018-04-24T12:59:57Z</time>
      </trkpt>
      <trkpt lat="44.77883" lon="3.14322">
        <ele>1050</ele>
        <time>2018-04-24T13:00:57Z</time>
      </trkpt>
      <trkpt lat="44.77933" lon="3.14265">
        <ele>1046</ele>
        <time>2018-04-24T13:01:57Z</time>
      </trkpt>
      <trkpt lat="44.77948" lon="3.14241">
        <ele>1047</ele>
        <time>2018-04-24T13:02:57Z</time>
      </trkpt>
      <trkpt lat="44.77956" lon="3.14233">
        <ele>1047</ele>
        <time>2018-04-24T13:03:57Z</time>
      </trkpt>
      <trkpt lat="44.77959" lon="3.14232">
        <ele>1047</ele>
        <time>2018-04-24T13:04:57Z</time>
      </trkpt>
      <trkpt lat="44.77962" lon="3.14236">
        <ele>1047</ele>
        <time>2018-04-24T13:05:57Z</time>
      </trkpt>
      <trkpt lat="44.77962" lon="3.14236">
        <ele>1047</ele>
        <time>2018-04-24T13:06:57Z</time>
      </trkpt>
      <trkpt lat="44.77965" lon="3.14254">
        <ele>1047</ele>
        <time>2018-04-24T13:07:57Z</time>
      </trkpt>
      <trkpt lat="44.7797" lon="3.14263">
        <ele>1047</ele>
        <time>2018-04-24T13:08:57Z</time>
      </trkpt>
      <trkpt lat="44.77988" lon="3.14275">
        <ele>1049</ele>
        <time>2018-04-24T13:09:57Z</time>
      </trkpt>
      <trkpt lat="44.78004" lon="3.14301">
        <ele>1051</ele>
        <time>2018-04-24T13:10:57Z</time>
      </trkpt>
      <trkpt lat="44.78013" lon="3.14324">
        <ele>1052</ele>
        <time>2018-04-24T13:11:57Z</time>
      </trkpt>
      <trkpt lat="44.7802" lon="3.14351">
        <ele>1053</ele>
        <time>2018-04-24T13:12:57Z</time>
      </trkpt>
      <trkpt lat="44.78025" lon="3.14459">
        <ele>1061</ele>
        <time>2018-04-24T13:13:57Z</time>
      </trkpt>
      <trkpt lat="44.78033" lon="3.1453">
        <ele>1068</ele>
        <time>2018-04-24T13:14:57Z</time>
      </trkpt>
      <trkpt lat="44.78045" lon="3.14583">
        <ele>1073</ele>
        <time>2018-04-24T13:15:57Z</time>
      </trkpt>
      <trkpt lat="44.78061" lon="3.14625">
        <ele>1077</ele>
        <time>2018-04-24T13:16:57Z</time>
      </trkpt>
      <trkpt lat="44.78071" lon="3.14645">
        <ele>1080</ele>
        <time>2018-04-24T13:17:57Z</time>
      </trkpt>
      <trkpt lat="44.78071" lon="3.14645">
        <ele>1080</ele>
        <time>2018-04-24T13:18:57Z</time>
      </trkpt>
      <trkpt lat="44.78084" lon="3.14671">
        <ele>1084</ele>
        <time>2018-04-24T13:19:57Z</time>
      </trkpt>
      <trkpt lat="44.78084" lon="3.14694">
        <ele>1086</ele>
        <time>2018-04-24T13:20:57Z</time>
      </trkpt>
      <trkpt lat="44.78078" lon="3.14717">
        <ele>1088</ele>
        <time>2018-04-24T13:21:57Z</time>
      </trkpt>
      <trkpt lat="44.78067" lon="3.14736">
        <ele>1089</ele>
        <time>2018-04-24T13:22:57Z</time>
      </trkpt>
      <trkpt lat="44.78067" lon="3.14736">
        <ele>1089</ele>
        <time>2018-04-24T13:23:57Z</time>
      </trkpt>
      <trkpt lat="44.78076" lon="3.14731">
        <ele>1089</ele>
        <time>2018-04-24T13:24:57Z</time>
      </trkpt>
      <trkpt lat="44.78085" lon="3.14713">
        <ele>1088</ele>
        <time>2018-04-24T13:25:57Z</time>
      </trkpt>
      <trkpt lat="44.78092" lon="3.1467">
        <ele>1085</ele>
        <time>2018-04-24T13:26:57Z</time>
      </trkpt>
      <trkpt lat="44.78095" lon="3.14656">
        <ele>1084</ele>
        <time>2018-04-24T13:27:57Z</time>
      </trkpt>
      <trkpt lat="44.78097" lon="3.14655">
        <ele>1084</ele>
        <time>2018-04-24T13:28:57Z</time>
      </trkpt>
      <trkpt lat="44.78097" lon="3.14655">
        <ele>1084</ele>
        <time>2018-04-24T13:29:57Z</time>
      </trkpt>
      <trkpt lat="44.78148" lon="3.14617">
        <ele>1087</ele>
        <time>2018-04-24T13:30:57Z</time>
      </trkpt>
      <trkpt lat="44.78206" lon="3.14563">
        <ele>1088</ele>
        <time>2018-04-24T13:31:57Z</time>
      </trkpt>
      <trkpt lat="44.78235" lon="3.14543">
        <ele>1089</ele>
        <time>2018-04-24T13:32:57Z</time>
      </trkpt>
      <trkpt lat="44.78247" lon="3.1454">
        <ele>1090</ele>
        <time>2018-04-24T13:33:57Z</time>
      </trkpt>
      <trkpt lat="44.78295" lon="3.14538">
        <ele>1096</ele>
        <time>2018-04-24T13:34:57Z</time>
      </trkpt>
      <trkpt lat="44.78324" lon="3.14526">
        <ele>1098</ele>
        <time>2018-04-24T13:35:57Z</time>
      </trkpt>
      <trkpt lat="44.78333" lon="3.14515">
        <ele>1097</ele>
        <time>2018-04-24T13:36:57Z</time>
      </trkpt>
      <trkpt lat="44.78333" lon="3.14515">
        <ele>1097</ele>
        <time>2018-04-24T13:37:57Z</time>
      </trkpt>
      <trkpt lat="44.78337" lon="3.14511">
        <ele>1097</ele>
        <time>2018-04-24T13:38:57Z</time>
      </trkpt>
      <trkpt lat="44.78372" lon="3.14446">
        <ele>1095</ele>
        <time>2018-04-24T13:39:57Z</time>
      </trkpt>
      <trkpt lat="44.78405" lon="3.14364">
        <ele>1093</ele>
        <time>2018-04-24T13:40:57Z</time>
      </trkpt>
      <trkpt lat="44.78415" lon="3.14347">
        <ele>1094</ele>
        <time>2018-04-24T13:41:57Z</time>
      </trkpt>
      <trkpt lat="44.78434" lon="3.14333">
        <ele>1095</ele>
        <time>2018-04-24T13:42:57Z</time>
      </trkpt>
      <trkpt lat="44.7849" lon="3.14284">
        <ele>1097</ele>
        <time>2018-04-24T13:43:57Z</time>
      </trkpt>
      <trkpt lat="44.78572" lon="3.14243">
        <ele>1088</ele>
        <time>2018-04-24T13:44:57Z</time>
      </trkpt>
      <trkpt lat="44.78606" lon="3.14224">
        <ele>1082</ele>
        <time>2018-04-24T13:45:57Z</time>
      </trkpt>
      <trkpt lat="44.78638" lon="3.14211">
        <ele>1076</ele>
        <time>2018-04-24T13:46:57Z</time>
      </trkpt>
      <trkpt lat="44.78675" lon="3.14187">
        <ele>1068</ele>
        <time>2018-04-24T13:47:57Z</time>
      </trkpt>
      <trkpt lat="44.78683" lon="3.14184">
        <ele>1067</ele>
        <time>2018-04-24T13:48:57Z</time>
      </trkpt>
      <trkpt lat="44.78683" lon="3.14184">
        <ele>1067</ele>
        <time>2018-04-24T13:49:57Z</time>
      </trkpt>
      <trkpt lat="44.78704" lon="3.14176">
        <ele>1064</ele>
        <time>2018-04-24T13:50:57Z</time>
      </trkpt>
      <trkpt lat="44.78717" lon="3.14175">
        <ele>1062</ele>
        <time>2018-04-24T13:51:57Z</time>
      </trkpt>
      <trkpt lat="44.78731" lon="3.14179">
        <ele>1061</ele>
        <time>2018-04-24T13:52:57Z</time>
      </trkpt>
      <trkpt lat="44.78747" lon="3.14189">
        <ele>1060</ele>
        <time>2018-04-24T13:53:57Z</time>
      </trkpt>
      <trkpt lat="44.78757" lon="3.14191">
        <ele>1060</ele>
        <time>2018-04-24T13:54:57Z</time>
      </trkpt>
      <trkpt lat="44.78763" lon="3.1419">
        <ele>1060</ele>
        <time>2018-04-24T13:55:57Z</time>
      </trkpt>
      <trkpt lat="44.78782" lon="3.14175">
        <ele>1058</ele>
        <time>2018-04-24T13:56:57Z</time>
      </trkpt>
      <trkpt lat="44.78795" lon="3.14172">
        <ele>1058</ele>
        <time>2018-04-24T13:57:57Z</time>
      </trkpt>
      <trkpt lat="44.78809" lon="3.14172">
        <ele>1057</ele>
        <time>2018-04-24T13:58:57Z</time>
      </trkpt>
      <trkpt lat="44.78822" lon="3.14179">
        <ele>1058</ele>
        <time>2018-04-24T13:59:57Z</time>
      </trkpt>
      <trkpt lat="44.78838" lon="3.14181">
        <ele>1058</ele>
        <time>2018-04-24T14:00:57Z</time>
      </trkpt>
      <trkpt lat="44.78851" lon="3.14179">
        <ele>1059</ele>
        <time>2018-04-24T14:01:57Z</time>
      </trkpt>
      <trkpt lat="44.78861" lon="3.14165">
        <ele>1059</ele>
        <time>2018-04-24T14:02:57Z</time>
      </trkpt>
      <trkpt lat="44.78865" lon="3.14153">
        <ele>1059</ele>
        <time>2018-04-24T14:03:57Z</time>
      </trkpt>
      <trkpt lat="44.78866" lon="3.14144">
        <ele>1059</ele>
        <time>2018-04-24T14:04:57Z</time>
      </trkpt>
      <trkpt lat="44.78866" lon="3.14144">
        <ele>1059</ele>
        <time>2018-04-24T14:05:57Z</time>
      </trkpt>
      <trkpt lat="44.78866" lon="3.14137">
        <ele>1059</ele>
        <time>2018-04-24T14:06:57Z</time>
      </trkpt>
      <trkpt lat="44.7887" lon="3.14124">
        <ele>1059</ele>
        <time>2018-04-24T14:07:57Z</time>
      </trkpt>
      <trkpt lat="44.78871" lon="3.1411">
        <ele>1059</ele>
        <time>2018-04-24T14:08:57Z</time>
      </trkpt>
      <trkpt lat="44.78865" lon="3.14101">
        <ele>1058</ele>
        <time>2018-04-24T14:09:57Z</time>
      </trkpt>
      <trkpt lat="44.78863" lon="3.14093">
        <ele>1058</ele>
        <time>2018-04-24T14:10:57Z</time>
      </trkpt>
      <trkpt lat="44.78867" lon="3.14071">
        <ele>1058</ele>
        <time>2018-04-24T14:11:57Z</time>
      </trkpt>
      <trkpt lat="44.78865" lon="3.14052">
        <ele>1056</ele>
        <time>2018-04-24T14:12:57Z</time>
      </trkpt>
      <trkpt lat="44.78867" lon="3.14032">
        <ele>1056</ele>
        <time>2018-04-24T14:13:57Z</time>
      </trkpt>
      <trkpt lat="44.78863" lon="3.14019">
        <ele>1055</ele>
        <time>2018-04-24T14:14:57Z</time>
      </trkpt>
      <trkpt lat="44.78873" lon="3.14012">
        <ele>1055</ele>
        <time>2018-04-24T14:15:57Z</time>
      </trkpt>
      <trkpt lat="44.78885" lon="3.1401">
        <ele>1056</ele>
        <time>2018-04-24T14:16:57Z</time>
      </trkpt>
      <trkpt lat="44.78892" lon="3.14013">
        <ele>1057</ele>
        <time>2018-04-24T14:17:57Z</time>
      </trkpt>
      <trkpt lat="44.78892" lon="3.14013">
        <ele>1057</ele>
        <time>2018-04-24T14:18:57Z</time>
      </trkpt>
      <trkpt lat="44.78926" lon="3.14026">
        <ele>1061</ele>
        <time>2018-04-24T14:19:57Z</time>
      </trkpt>
      <trkpt lat="44.78926" lon="3.14026">
        <ele>1061</ele>
        <time>2018-04-24T14:20:57Z</time>
      </trkpt>
      <trkpt lat="44.78929" lon="3.14027">
        <ele>1061</ele>
        <time>2018-04-24T14:21:57Z</time>
      </trkpt>
      <trkpt lat="44.78927" lon="3.14063">
        <ele>1063</ele>
        <time>2018-04-24T14:22:57Z</time>
      </trkpt>
      <trkpt lat="44.78932" lon="3.14079">
        <ele>1065</ele>
        <time>2018-04-24T14:23:57Z</time>
      </trkpt>
      <trkpt lat="44.78943" lon="3.14098">
        <ele>1066</ele>
        <time>2018-04-24T14:24:57Z</time>
      </trkpt>
      <trkpt lat="44.78943" lon="3.14098">
        <ele>1066</ele>
        <time>2018-04-24T14:25:57Z</time>
      </trkpt>
      <trkpt lat="44.78958" lon="3.14107">
        <ele>1068</ele>
        <time>2018-04-24T14:26:57Z</time>
      </trkpt>
      <trkpt lat="44.78969" lon="3.14105">
        <ele>1069</ele>
        <time>2018-04-24T14:27:57Z</time>
      </trkpt>
      <trkpt lat="44.78974" lon="3.14098">
        <ele>1069</ele>
        <time>2018-04-24T14:28:57Z</time>
      </trkpt>
      <trkpt lat="44.78981" lon="3.14094">
        <ele>1069</ele>
        <time>2018-04-24T14:29:57Z</time>
      </trkpt>
      <trkpt lat="44.78981" lon="3.14094">
        <ele>1069</ele>
        <time>2018-04-24T14:30:57Z</time>
      </trkpt>
      <trkpt lat="44.78999" lon="3.14086">
        <ele>1070</ele>
        <time>2018-04-24T14:31:57Z</time>
      </trkpt>
      <trkpt lat="44.7905" lon="3.14071">
        <ele>1075</ele>
        <time>2018-04-24T14:32:57Z</time>
      </trkpt>
      <trkpt lat="44.79058" lon="3.14071">
        <ele>1076</ele>
        <time>2018-04-24T14:33:57Z</time>
      </trkpt>
      <trkpt lat="44.79127" lon="3.14082">
        <ele>1084</ele>
        <time>2018-04-24T14:34:57Z</time>
      </trkpt>
      <trkpt lat="44.79146" lon="3.14076">
        <ele>1085</ele>
        <time>2018-04-24T14:35:57Z</time>
      </trkpt>
      <trkpt lat="44.79195" lon="3.1408">
        <ele>1088</ele>
        <time>2018-04-24T14:36:57Z</time>
      </trkpt>
      <trkpt lat="44.79226" lon="3.14087">
        <ele>1090</ele>
        <time>2018-04-24T14:37:57Z</time>
      </trkpt>
      <trkpt lat="44.79245" lon="3.141">
        <ele>1092</ele>
        <time>2018-04-24T14:38:57Z</time>
      </trkpt>
      <trkpt lat="44.79254" lon="3.14114">
        <ele>1093</ele>
        <time>2018-04-24T14:39:57Z</time>
      </trkpt>
      <trkpt lat="44.79254" lon="3.14114">
        <ele>1093</ele>
        <time>2018-04-24T14:40:57Z</time>
      </trkpt>
      <trkpt lat="44.79277" lon="3.14163">
        <ele>1099</ele>
        <time>2018-04-24T14:41:57Z</time>
      </trkpt>
      <trkpt lat="44.79287" lon="3.14172">
        <ele>1100</ele>
        <time>2018-04-24T14:42:57Z</time>
      </trkpt>
      <trkpt lat="44.79314" lon="3.14183">
        <ele>1102</ele>
        <time>2018-04-24T14:43:57Z</time>
      </trkpt>
      <trkpt lat="44.79339" lon="3.14199">
        <ele>1104</ele>
        <time>2018-04-24T14:44:57Z</time>
      </trkpt>
      <trkpt lat="44.79345" lon="3.14209">
        <ele>1105</ele>
        <time>2018-04-24T14:45:57Z</time>
      </trkpt>
      <trkpt lat="44.79358" lon="3.14239">
        <ele>1107</ele>
        <time>2018-04-24T14:46:57Z</time>
      </trkpt>
      <trkpt lat="44.79365" lon="3.14251">
        <ele>1109</ele>
        <time>2018-04-24T14:47:57Z</time>
      </trkpt>
      <trkpt lat="44.79424" lon="3.14327">
        <ele>1114</ele>
        <time>2018-04-24T14:48:57Z</time>
      </trkpt>
      <trkpt lat="44.79445" lon="3.14347">
        <ele>1115</ele>
        <time>2018-04-24T14:49:57Z</time>
      </trkpt>
      <trkpt lat="44.79461" lon="3.1436">
        <ele>1115</ele>
        <time>2018-04-24T14:50:57Z</time>
      </trkpt>
      <trkpt lat="44.7948" lon="3.14369">
        <ele>1116</ele>
        <time>2018-04-24T14:51:57Z</time>
      </trkpt>
      <trkpt lat="44.7952" lon="3.14383">
        <ele>1119</ele>
        <time>2018-04-24T14:52:57Z</time>
      </trkpt>
      <trkpt lat="44.79537" lon="3.14395">
        <ele>1121</ele>
        <time>2018-04-24T14:53:57Z</time>
      </trkpt>
      <trkpt lat="44.79583" lon="3.1442">
        <ele>1127</ele>
        <time>2018-04-24T14:54:57Z</time>
      </trkpt>
      <trkpt lat="44.7961" lon="3.14419">
        <ele>1131</ele>
        <time>2018-04-24T14:55:57Z</time>
      </trkpt>
      <trkpt lat="44.79646" lon="3.14407">
        <ele>1135</ele>
        <time>2018-04-24T14:56:57Z</time>
      </trkpt>
      <trkpt lat="44.7965" lon="3.14408">
        <ele>1135</ele>
        <time>2018-04-24T14:57:57Z</time>
      </trkpt>
      <trkpt lat="44.7965" lon="3.14408">
        <ele>1135</ele>
        <time>2018-04-24T14:58:57Z</time>
      </trkpt>
      <trkpt lat="44.79652" lon="3.14408">
        <ele>1135</ele>
        <time>2018-04-24T14:59:57Z</time>
      </trkpt>
      <trkpt lat="44.79666" lon="3.14453">
        <ele>1141</ele>
        <time>2018-04-24T15:00:57Z</time>
      </trkpt>
      <trkpt lat="44.79702" lon="3.14554">
        <ele>1153</ele>
        <time>2018-04-24T15:01:57Z</time>
      </trkpt>
      <trkpt lat="44.79712" lon="3.14605">
        <ele>1158</ele>
        <time>2018-04-24T15:02:57Z</time>
      </trkpt>
      <trkpt lat="44.79726" lon="3.14645">
        <ele>1162</ele>
        <time>2018-04-24T15:03:57Z</time>
      </trkpt>
      <trkpt lat="44.79726" lon="3.14645">
        <ele>1162</ele>
        <time>2018-04-24T15:04:57Z</time>
      </trkpt>
      <trkpt lat="44.7973" lon="3.1462">
        <ele>1160</ele>
        <time>2018-04-24T15:05:57Z</time>
      </trkpt>
      <trkpt lat="44.79737" lon="3.14598">
        <ele>1159</ele>
        <time>2018-04-24T15:06:57Z</time>
      </trkpt>
      <trkpt lat="44.79761" lon="3.14564">
        <ele>1158</ele>
        <time>2018-04-24T15:07:57Z</time>
      </trkpt>
      <trkpt lat="44.79769" lon="3.14557">
        <ele>1158</ele>
        <time>2018-04-24T15:08:57Z</time>
      </trkpt>
      <trkpt lat="44.79775" lon="3.14546">
        <ele>1158</ele>
        <time>2018-04-24T15:09:57Z</time>
      </trkpt>
      <trkpt lat="44.7978" lon="3.14472">
        <ele>1152</ele>
        <time>2018-04-24T15:10:57Z</time>
      </trkpt>
      <trkpt lat="44.79784" lon="3.14455">
        <ele>1152</ele>
        <time>2018-04-24T15:11:57Z</time>
      </trkpt>
      <trkpt lat="44.79791" lon="3.14375">
        <ele>1147</ele>
        <time>2018-04-24T15:12:57Z</time>
      </trkpt>
      <trkpt lat="44.79796" lon="3.1434">
        <ele>1146</ele>
        <time>2018-04-24T15:13:57Z</time>
      </trkpt>
      <trkpt lat="44.79802" lon="3.14314">
        <ele>1145</ele>
        <time>2018-04-24T15:14:57Z</time>
      </trkpt>
      <trkpt lat="44.79822" lon="3.14255">
        <ele>1143</ele>
        <time>2018-04-24T15:15:57Z</time>
      </trkpt>
      <trkpt lat="44.79829" lon="3.14219">
        <ele>1142</ele>
        <time>2018-04-24T15:16:57Z</time>
      </trkpt>
      <trkpt lat="44.79838" lon="3.14162">
        <ele>1139</ele>
        <time>2018-04-24T15:17:57Z</time>
      </trkpt>
      <trkpt lat="44.79846" lon="3.14131">
        <ele>1137</ele>
        <time>2018-04-24T15:18:57Z</time>
      </trkpt>
      <trkpt lat="44.79846" lon="3.14111">
        <ele>1135</ele>
        <time>2018-04-24T15:19:57Z</time>
      </trkpt>
      <trkpt lat="44.79848" lon="3.14088">
        <ele>1134</ele>
        <time>2018-04-24T15:20:57Z</time>
      </trkpt>
      <trkpt lat="44.79851" lon="3.14076">
        <ele>1133</ele>
        <time>2018-04-24T15:21:57Z</time>
      </trkpt>
      <trkpt lat="44.79854" lon="3.14075">
        <ele>1134</ele>
        <time>2018-04-24T15:22:57Z</time>
      </trkpt>
      <trkpt lat="44.79854" lon="3.14075">
        <ele>1134</ele>
        <time>2018-04-24T15:23:57Z</time>
      </trkpt>
      <trkpt lat="44.79867" lon="3.1407">
        <ele>1135</ele>
        <time>2018-04-24T15:24:57Z</time>
      </trkpt>
      <trkpt lat="44.79889" lon="3.14037">
        <ele>1137</ele>
        <time>2018-04-24T15:25:57Z</time>
      </trkpt>
      <trkpt lat="44.79897" lon="3.1402">
        <ele>1137</ele>
        <time>2018-04-24T15:26:57Z</time>
      </trkpt>
      <trkpt lat="44.79908" lon="3.13983">
        <ele>1136</ele>
        <time>2018-04-24T15:27:57Z</time>
      </trkpt>
      <trkpt lat="44.79917" lon="3.13945">
        <ele>1136</ele>
        <time>2018-04-24T15:28:57Z</time>
      </trkpt>
      <trkpt lat="44.79917" lon="3.13945">
        <ele>1136</ele>
        <time>2018-04-24T15:29:57Z</time>
      </trkpt>
      <trkpt lat="44.79943" lon="3.13839">
        <ele>1133</ele>
        <time>2018-04-24T15:30:57Z</time>
      </trkpt>
      <trkpt lat="44.79962" lon="3.13753">
        <ele>1129</ele>
        <time>2018-04-24T15:31:57Z</time>
      </trkpt>
      <trkpt lat="44.79964" lon="3.13741">
        <ele>1128</ele>
        <time>2018-04-24T15:32:57Z</time>
      </trkpt>
      <trkpt lat="44.79962" lon="3.13714">
        <ele>1125</ele>
        <time>2018-04-24T15:33:57Z</time>
      </trkpt>
      <trkpt lat="44.79963" lon="3.13698">
        <ele>1123</ele>
        <time>2018-04-24T15:34:57Z</time>
      </trkpt>
      <trkpt lat="44.79967" lon="3.13679">
        <ele>1122</ele>
        <time>2018-04-24T15:35:57Z</time>
      </trkpt>
      <trkpt lat="44.80009" lon="3.13587">
        <ele>1119</ele>
        <time>2018-04-24T15:36:57Z</time>
      </trkpt>
      <trkpt lat="44.80037" lon="3.13531">
        <ele>1116</ele>
        <time>2018-04-24T15:37:57Z</time>
      </trkpt>
      <trkpt lat="44.80051" lon="3.13448">
        <ele>1111</ele>
        <time>2018-04-24T15:38:57Z</time>
      </trkpt>
      <trkpt lat="44.80053" lon="3.13423">
        <ele>1110</ele>
        <time>2018-04-24T15:39:57Z</time>
      </trkpt>
      <trkpt lat="44.8005" lon="3.13329">
        <ele>1102</ele>
        <time>2018-04-24T15:40:57Z</time>
      </trkpt>
      <trkpt lat="44.80045" lon="3.13292">
        <ele>1099</ele>
        <time>2018-04-24T15:41:57Z</time>
      </trkpt>
      <trkpt lat="44.80045" lon="3.13277">
        <ele>1098</ele>
        <time>2018-04-24T15:42:57Z</time>
      </trkpt>
      <trkpt lat="44.80049" lon="3.13245">
        <ele>1096</ele>
        <time>2018-04-24T15:43:57Z</time>
      </trkpt>
      <trkpt lat="44.80065" lon="3.13152">
        <ele>1089</ele>
        <time>2018-04-24T15:44:57Z</time>
      </trkpt>
      <trkpt lat="44.80063" lon="3.13141">
        <ele>1087</ele>
        <time>2018-04-24T15:45:57Z</time>
      </trkpt>
      <trkpt lat="44.80065" lon="3.13126">
        <ele>1085</ele>
        <time>2018-04-24T15:46:57Z</time>
      </trkpt>
      <trkpt lat="44.80065" lon="3.13126">
        <ele>1085</ele>
        <time>2018-04-24T15:47:57Z</time>
      </trkpt>
      <trkpt lat="44.80071" lon="3.13117">
        <ele>1084</ele>
        <time>2018-04-24T15:48:57Z</time>
      </trkpt>
      <trkpt lat="44.80087" lon="3.13108">
        <ele>1083</ele>
        <time>2018-04-24T15:49:57Z</time>
      </trkpt>
      <trkpt lat="44.80113" lon="3.13097">
        <ele>1081</ele>
        <time>2018-04-24T15:50:57Z</time>
      </trkpt>
      <trkpt lat="44.80133" lon="3.13082">
        <ele>1079</ele>
        <time>2018-04-24T15:51:57Z</time>
      </trkpt>
      <trkpt lat="44.80144" lon="3.13076">
        <ele>1078</ele>
        <time>2018-04-24T15:52:57Z</time>
      </trkpt>
      <trkpt lat="44.80144" lon="3.13076">
        <ele>1078</ele>
        <time>2018-04-24T15:53:57Z</time>
      </trkpt>
      <trkpt lat="44.80169" lon="3.13067">
        <ele>1077</ele>
        <time>2018-04-24T15:54:57Z</time>
      </trkpt>
      <trkpt lat="44.80184" lon="3.13057">
        <ele>1075</ele>
        <time>2018-04-24T15:55:57Z</time>
      </trkpt>
      <trkpt lat="44.80175" lon="3.13058">
        <ele>1075</ele>
        <time>2018-04-24T15:56:57Z</time>
      </trkpt>
      <trkpt lat="44.80175" lon="3.13058">
        <ele>1075</ele>
        <time>2018-04-24T15:57:57Z</time>
      </trkpt>
      <trkpt lat="44.80184" lon="3.13057">
        <ele>1075</ele>
        <time>2018-04-24T15:58:57Z</time>
      </trkpt>
      <trkpt lat="44.80206" lon="3.13063">
        <ele>1076</ele>
        <time>2018-04-24T15:59:57Z</time>
      </trkpt>
      <trkpt lat="44.80235" lon="3.13076">
        <ele>1078</ele>
        <time>2018-04-24T16:00:57Z</time>
      </trkpt>
      <trkpt lat="44.80252" lon="3.13076">
        <ele>1078</ele>
        <time>2018-04-24T16:01:57Z</time>
      </trkpt>
      <trkpt lat="44.80279" lon="3.13051">
        <ele>1077</ele>
        <time>2018-04-24T16:02:57Z</time>
      </trkpt>
      <trkpt lat="44.80306" lon="3.1302">
        <ele>1074</ele>
        <time>2018-04-24T16:03:57Z</time>
      </trkpt>
      <trkpt lat="44.80322" lon="3.13006">
        <ele>1072</ele>
        <time>2018-04-24T16:04:57Z</time>
      </trkpt>
      <trkpt lat="44.80338" lon="3.12995">
        <ele>1072</ele>
        <time>2018-04-24T16:05:57Z</time>
      </trkpt>
      <trkpt lat="44.80341" lon="3.12994">
        <ele>1072</ele>
        <time>2018-04-24T16:06:57Z</time>
      </trkpt>
      <trkpt lat="44.80341" lon="3.12994">
        <ele>1072</ele>
        <time>2018-04-24T16:07:57Z</time>
      </trkpt>
      <trkpt lat="44.80346" lon="3.12993">
        <ele>1072</ele>
        <time>2018-04-24T16:08:57Z</time>
      </trkpt>
      <trkpt lat="44.80368" lon="3.12979">
        <ele>1073</ele>
        <time>2018-04-24T16:09:57Z</time>
      </trkpt>
      <trkpt lat="44.8039" lon="3.12949">
        <ele>1074</ele>
        <time>2018-04-24T16:10:57Z</time>
      </trkpt>
      <trkpt lat="44.80412" lon="3.1293">
        <ele>1077</ele>
        <time>2018-04-24T16:11:57Z</time>
      </trkpt>
      <trkpt lat="44.80424" lon="3.12925">
        <ele>1078</ele>
        <time>2018-04-24T16:12:57Z</time>
      </trkpt>
      <trkpt lat="44.8047" lon="3.12926">
        <ele>1081</ele>
        <time>2018-04-24T16:13:57Z</time>
      </trkpt>
      <trkpt lat="44.80483" lon="3.1293">
        <ele>1082</ele>
        <time>2018-04-24T16:14:57Z</time>
      </trkpt>
      <trkpt lat="44.805" lon="3.12941">
        <ele>1082</ele>
        <time>2018-04-24T16:15:57Z</time>
      </trkpt>
      <trkpt lat="44.80505" lon="3.12949">
        <ele>1081</ele>
        <time>2018-04-24T16:16:57Z</time>
      </trkpt>
      <trkpt lat="44.8051" lon="3.12961">
        <ele>1080</ele>
        <time>2018-04-24T16:17:57Z</time>
      </trkpt>
      <trkpt lat="44.80526" lon="3.12972">
        <ele>1078</ele>
        <time>2018-04-24T16:18:57Z</time>
      </trkpt>
      <trkpt lat="44.80526" lon="3.12972">
        <ele>1078</ele>
        <time>2018-04-24T16:19:57Z</time>
      </trkpt>
      <trkpt lat="44.80556" lon="3.1299">
        <ele>1073</ele>
        <time>2018-04-24T16:20:57Z</time>
      </trkpt>
      <trkpt lat="44.80589" lon="3.13014">
        <ele>1068</ele>
        <time>2018-04-24T16:21:57Z</time>
      </trkpt>
      <trkpt lat="44.80597" lon="3.13022">
        <ele>1068</ele>
        <time>2018-04-24T16:22:57Z</time>
      </trkpt>
      <trkpt lat="44.80603" lon="3.13036">
        <ele>1067</ele>
        <time>2018-04-24T16:23:57Z</time>
      </trkpt>
      <trkpt lat="44.80604" lon="3.1309">
        <ele>1068</ele>
        <time>2018-04-24T16:24:57Z</time>
      </trkpt>
      <trkpt lat="44.80608" lon="3.13105">
        <ele>1070</ele>
        <time>2018-04-24T16:25:57Z</time>
      </trkpt>
      <trkpt lat="44.80615" lon="3.13115">
        <ele>1071</ele>
        <time>2018-04-24T16:26:57Z</time>
      </trkpt>
      <trkpt lat="44.8063" lon="3.13126">
        <ele>1072</ele>
        <time>2018-04-24T16:27:57Z</time>
      </trkpt>
      <trkpt lat="44.80641" lon="3.13132">
        <ele>1072</ele>
        <time>2018-04-24T16:28:57Z</time>
      </trkpt>
      <trkpt lat="44.80651" lon="3.13133">
        <ele>1071</ele>
        <time>2018-04-24T16:29:57Z</time>
      </trkpt>
      <trkpt lat="44.80672" lon="3.13127">
        <ele>1069</ele>
        <time>2018-04-24T16:30:57Z</time>
      </trkpt>
      <trkpt lat="44.80687" lon="3.13119">
        <ele>1065</ele>
        <time>2018-04-24T16:31:57Z</time>
      </trkpt>
      <trkpt lat="44.80723" lon="3.13109">
        <ele>1058</ele>
        <time>2018-04-24T16:32:57Z</time>
      </trkpt>
      <trkpt lat="44.80737" lon="3.13107">
        <ele>1056</ele>
        <time>2018-04-24T16:33:57Z</time>
      </trkpt>
      <trkpt lat="44.80778" lon="3.13117">
        <ele>1053</ele>
        <time>2018-04-24T16:34:57Z</time>
      </trkpt>
      <trkpt lat="44.8079" lon="3.13116">
        <ele>1052</ele>
        <time>2018-04-24T16:35:57Z</time>
      </trkpt>
      <trkpt lat="44.80831" lon="3.13104">
        <ele>1048</ele>
        <time>2018-04-24T16:36:57Z</time>
      </trkpt>
      <trkpt lat="44.80838" lon="3.13098">
        <ele>1047</ele>
        <time>2018-04-24T16:37:57Z</time>
      </trkpt>
      <trkpt lat="44.80846" lon="3.13085">
        <ele>1047</ele>
        <time>2018-04-24T16:38:57Z</time>
      </trkpt>
      <trkpt lat="44.80851" lon="3.13068">
        <ele>1046</ele>
        <time>2018-04-24T16:39:57Z</time>
      </trkpt>
      <trkpt lat="44.80897" lon="3.12993">
        <ele>1047</ele>
        <time>2018-04-24T16:40:57Z</time>
      </trkpt>
      <trkpt lat="44.80897" lon="3.12993">
        <ele>1047</ele>
        <time>2018-04-24T16:41:57Z</time>
      </trkpt>
      <trkpt lat="44.80953" lon="3.12884">
        <ele>1042</ele>
        <time>2018-04-24T16:42:57Z</time>
      </trkpt>
      <trkpt lat="44.80973" lon="3.12855">
        <ele>1040</ele>
        <time>2018-04-24T16:43:57Z</time>
      </trkpt>
      <trkpt lat="44.81027" lon="3.12791">
        <ele>1035</ele>
        <time>2018-04-24T16:44:57Z</time>
      </trkpt>
      <trkpt lat="44.81034" lon="3.1278">
        <ele>1034</ele>
        <time>2018-04-24T16:45:57Z</time>
      </trkpt>
      <trkpt lat="44.81034" lon="3.1278">
        <ele>1034</ele>
        <time>2018-04-24T16:46:57Z</time>
      </trkpt>
      <trkpt lat="44.81045" lon="3.1276">
        <ele>1033</ele>
        <time>2018-04-24T16:47:57Z</time>
      </trkpt>
      <trkpt lat="44.81052" lon="3.12735">
        <ele>1031</ele>
        <time>2018-04-24T16:48:57Z</time>
      </trkpt>
      <trkpt lat="44.81058" lon="3.12691">
        <ele>1026</ele>
        <time>2018-04-24T16:49:57Z</time>
      </trkpt>
      <trkpt lat="44.81064" lon="3.12674">
        <ele>1025</ele>
        <time>2018-04-24T16:50:57Z</time>
      </trkpt>
      <trkpt lat="44.81083" lon="3.12641">
        <ele>1021</ele>
        <time>2018-04-24T16:51:57Z</time>
      </trkpt>
      <trkpt lat="44.81091" lon="3.12631">
        <ele>1019</ele>
        <time>2018-04-24T16:52:57Z</time>
      </trkpt>
      <trkpt lat="44.81139" lon="3.12603">
        <ele>1015</ele>
        <time>2018-04-24T16:53:57Z</time>
      </trkpt>
      <trkpt lat="44.81165" lon="3.1257">
        <ele>1008</ele>
        <time>2018-04-24T16:54:57Z</time>
      </trkpt>
      <trkpt lat="44.81212" lon="3.12536">
        <ele>1003</ele>
        <time>2018-04-24T16:55:57Z</time>
      </trkpt>
      <trkpt lat="44.81229" lon="3.12527">
        <ele>1002</ele>
        <time>2018-04-24T16:56:57Z</time>
      </trkpt>
      <trkpt lat="44.81266" lon="3.12494">
        <ele>998</ele>
        <time>2018-04-24T16:57:57Z</time>
      </trkpt>
      <trkpt lat="44.81266" lon="3.12494">
        <ele>998</ele>
        <time>2018-04-24T16:58:57Z</time>
      </trkpt>
      <trkpt lat="44.81283" lon="3.12479">
        <ele>996</ele>
        <time>2018-04-24T16:59:57Z</time>
      </trkpt>
      <trkpt lat="44.81299" lon="3.12469">
        <ele>995</ele>
        <time>2018-04-24T17:00:57Z</time>
      </trkpt>
      <trkpt lat="44.81306" lon="3.12461">
        <ele>994</ele>
        <time>2018-04-24T17:01:57Z</time>
      </trkpt>
      <trkpt lat="44.81309" lon="3.12451">
        <ele>992</ele>
        <time>2018-04-24T17:02:57Z</time>
      </trkpt>
      <trkpt lat="44.81314" lon="3.12442">
        <ele>990</ele>
        <time>2018-04-24T17:03:57Z</time>
      </trkpt>
      <trkpt lat="44.81321" lon="3.12433">
        <ele>988</ele>
        <time>2018-04-24T17:04:57Z</time>
      </trkpt>
      <trkpt lat="44.81336" lon="3.12421">
        <ele>987</ele>
        <time>2018-04-24T17:05:57Z</time>
      </trkpt>
      <trkpt lat="44.81357" lon="3.12391">
        <ele>982</ele>
        <time>2018-04-24T17:06:57Z</time>
      </trkpt>
      <trkpt lat="44.81374" lon="3.12373">
        <ele>979</ele>
        <time>2018-04-24T17:07:57Z</time>
      </trkpt>
      <trkpt lat="44.81389" lon="3.12364">
        <ele>978</ele>
        <time>2018-04-24T17:08:57Z</time>
      </trkpt>
      <trkpt lat="44.81418" lon="3.12357">
        <ele>977</ele>
        <time>2018-04-24T17:09:57Z</time>
      </trkpt>
      <trkpt lat="44.81434" lon="3.12357">
        <ele>977</ele>
        <time>2018-04-24T17:10:57Z</time>
      </trkpt>
      <trkpt lat="44.81466" lon="3.12366">
        <ele>980</ele>
        <time>2018-04-24T17:11:57Z</time>
      </trkpt>
      <trkpt lat="44.81472" lon="3.12366">
        <ele>980</ele>
        <time>2018-04-24T17:12:57Z</time>
      </trkpt>
      <trkpt lat="44.81472" lon="3.12366">
        <ele>980</ele>
        <time>2018-04-24T17:13:57Z</time>
      </trkpt>
      <trkpt lat="44.81548" lon="3.12355">
        <ele>975</ele>
        <time>2018-04-24T17:14:57Z</time>
      </trkpt>
      <trkpt lat="44.81579" lon="3.12354">
        <ele>974</ele>
        <time>2018-04-24T17:15:57Z</time>
      </trkpt>
      <trkpt lat="44.81596" lon="3.12351">
        <ele>973</ele>
        <time>2018-04-24T17:16:57Z</time>
      </trkpt>
      <trkpt lat="44.81626" lon="3.12333">
        <ele>969</ele>
        <time>2018-04-24T17:17:57Z</time>
      </trkpt>
      <trkpt lat="44.81656" lon="3.1234">
        <ele>970</ele>
        <time>2018-04-24T17:18:57Z</time>
      </trkpt>
      <trkpt lat="44.81662" lon="3.12336">
        <ele>969</ele>
        <time>2018-04-24T17:19:57Z</time>
      </trkpt>
      <trkpt lat="44.81662" lon="3.12336">
        <ele>969</ele>
        <time>2018-04-24T17:20:57Z</time>
      </trkpt>
      <trkpt lat="44.8167" lon="3.12321">
        <ele>968</ele>
        <time>2018-04-24T17:21:57Z</time>
      </trkpt>
      <trkpt lat="44.81679" lon="3.12263">
        <ele>965</ele>
        <time>2018-04-24T17:22:57Z</time>
      </trkpt>
      <trkpt lat="44.81683" lon="3.12258">
        <ele>964</ele>
        <time>2018-04-24T17:23:57Z</time>
      </trkpt>
      <trkpt lat="44.81682" lon="3.12253">
        <ele>964</ele>
        <time>2018-04-24T17:24:57Z</time>
      </trkpt>
      <trkpt lat="44.81682" lon="3.12253">
        <ele>964</ele>
        <time>2018-04-24T17:25:57Z</time>
      </trkpt>
      <trkpt lat="44.81673" lon="3.12201">
        <ele>963</ele>
        <time>2018-04-24T17:26:57Z</time>
      </trkpt>
      <trkpt lat="44.81674" lon="3.12167">
        <ele>962</ele>
        <time>2018-04-24T17:27:57Z</time>
      </trkpt>
      <trkpt lat="44.81677" lon="3.12111">
        <ele>963</ele>
        <time>2018-04-24T17:28:57Z</time>
      </trkpt>
      <trkpt lat="44.81682" lon="3.12093">
        <ele>963</ele>
        <time>2018-04-24T17:29:57Z</time>
      </trkpt>
      <trkpt lat="44.81687" lon="3.12087">
        <ele>963</ele>
        <time>2018-04-24T17:30:57Z</time>
      </trkpt>
    </trkseg>
  </trk>
</gpx>